createdAt,value
2018-12-13T18:53:29.545Z,56.26
2018-12-13T18:54:29.528Z,56.45
2018-12-13T18:55:36.580Z,56.26
2018-12-13T18:56:36.574Z,56.26
2018-12-13T18:57:36.565Z,56.36
2018-12-13T18:58:36.561Z,56.45
2018-12-13T18:59:36.541Z,56.16
2018-12-13T19:00:36.537Z,55.88
2018-12-13T19:01:36.536Z,55.78
2018-12-13T19:02:36.526Z,55.59
2018-12-13T19:03:36.522Z,55.68
2018-12-13T19:04:36.515Z,55.98
2018-12-13T19:05:36.499Z,56.07
2018-12-13T19:06:36.496Z,56.26
2018-12-13T19:07:36.483Z,56.16
2018-12-13T19:08:36.476Z,55.88
2018-12-13T19:09:36.474Z,56.16
2018-12-13T19:10:41.762Z,56.16
2018-12-13T19:11:36.474Z,56.45
2018-12-13T19:12:36.455Z,56.26
2018-12-13T19:13:36.440Z,56.16
2018-12-13T19:14:36.433Z,55.98
2018-12-13T19:15:36.434Z,55.98
2018-12-13T19:16:36.427Z,56.07
2018-12-13T19:17:36.411Z,51.50
2018-12-13T19:18:36.409Z,40.52
2018-12-13T19:19:36.394Z,41.27
2018-12-13T19:20:36.389Z,41.22
2018-12-13T19:21:36.392Z,42.37
2018-12-13T19:22:36.384Z,58.24
2018-12-13T19:23:36.394Z,57.85
2018-12-13T19:24:36.366Z,55.67
2018-12-13T19:25:36.348Z,54.45
2018-12-13T19:26:36.343Z,54.00
2018-12-13T19:27:36.334Z,53.32
2018-12-13T19:28:36.325Z,53.03
2018-12-13T19:29:36.330Z,53.42
2018-12-13T19:30:36.323Z,53.32
2018-12-13T19:31:36.308Z,53.25
2018-12-13T19:32:36.295Z,53.54
2018-12-13T19:33:36.294Z,53.45
2018-12-13T19:34:36.283Z,54.02
2018-12-13T19:35:36.278Z,54.12
2018-12-13T19:36:36.282Z,54.02
2018-12-13T19:37:36.256Z,53.83
2018-12-13T19:38:36.248Z,53.92
2018-12-13T19:39:36.242Z,54.12
2018-12-13T19:40:36.234Z,54.31
2018-12-13T19:41:36.234Z,53.83
2018-12-13T19:42:36.927Z,54.02
2018-12-13T19:43:36.224Z,54.12
2018-12-13T19:44:36.224Z,54.50
2018-12-13T19:45:36.200Z,54.72
2018-12-13T19:46:36.192Z,54.60
2018-12-13T19:47:36.190Z,54.79
2018-12-13T19:48:36.184Z,54.69
2018-12-13T19:49:36.171Z,55.18
2018-12-13T19:50:36.815Z,55.18
2018-12-13T19:51:36.187Z,54.50
2018-12-13T19:52:36.149Z,55.27
2018-12-13T19:53:36.145Z,54.79
2018-12-13T19:54:36.333Z,54.82
2018-12-13T19:55:36.132Z,55.01
2018-12-13T19:56:36.124Z,55.27
2018-12-13T19:57:36.108Z,55.27
2018-12-13T19:58:36.105Z,55.27
2018-12-13T19:59:36.099Z,55.18
2018-12-13T20:00:36.088Z,55.37
2018-12-13T20:01:36.088Z,55.37
2018-12-13T20:02:36.077Z,55.08
2018-12-13T20:03:36.065Z,55.08
2018-12-13T20:04:36.060Z,55.18
2018-12-13T20:05:36.059Z,54.79
2018-12-13T20:06:36.053Z,54.91
2018-12-13T20:07:36.046Z,54.89
2018-12-13T20:08:36.036Z,54.79
2018-12-13T20:09:36.022Z,55.11
2018-12-13T20:10:36.018Z,55.01
2018-12-13T20:11:36.012Z,55.20
2018-12-13T20:12:36.007Z,55.11
2018-12-13T20:13:36.002Z,55.30
2018-12-13T20:14:36.143Z,55.27
2018-12-13T20:15:35.990Z,55.20
2018-12-13T20:16:35.988Z,54.99
2018-12-13T20:17:35.971Z,55.11
2018-12-13T20:18:35.965Z,55.11
2018-12-13T20:19:35.963Z,55.11
2018-12-13T20:20:35.954Z,55.30
2018-12-13T20:21:35.945Z,55.01
2018-12-13T20:22:35.938Z,54.72
2018-12-13T20:23:35.930Z,55.30
2018-12-13T20:24:35.924Z,54.63
2018-12-13T20:25:35.927Z,55.20
2018-12-13T20:26:35.916Z,54.72
2018-12-13T20:27:35.913Z,54.91
2018-12-13T20:28:35.910Z,55.20
2018-12-13T20:29:35.903Z,55.20
2018-12-13T20:30:35.891Z,55.20
2018-12-13T20:31:35.877Z,55.18
2018-12-13T20:32:35.875Z,55.08
2018-12-13T20:33:36.654Z,55.30
